Time;durP1;ratioP1;P1;durP2;ratioP2;P2;SDS_P1;SDS_P2;PMS_P1;PMS_P2;Temp;Humidity;BMP_temperature;BMP_pressure;BME280_temperature;BME280_humidity;BME280_pressure;Samples;Min_cycle;Max_cycle;Signal;HPM_P1;HPM_P2
2024/02/05 00:00:11;;;;;;;6.60;4.60;;;;;;;2.91;100.00;99485.98;109630;1251;61150;-83
2024/02/05 00:02:39;;;;;;;8.00;4.60;;;;;;;2.89;100.00;99495.73;109717;1251;59354;-82
2024/02/05 00:05:08;;;;;;;13.10;4.80;;;;;;;2.87;100.00;99495.31;109634;1251;73835;-81
2024/02/05 00:07:35;;;;;;;10.00;3.80;;;;;;;2.85;100.00;99488.50;109698;1251;62784;-82
2024/02/05 00:10:08;;;;;;;7.00;3.80;;;;;;;2.83;100.00;99484.43;109663;1251;71206;-81
2024/02/05 00:12:35;;;;;;;6.70;3.90;;;;;;;2.82;100.00;99482.24;109666;1251;59975;-82
2024/02/05 00:15:02;;;;;;;11.40;3.50;;;;;;;2.81;100.00;99468.88;109743;1251;60040;-83
2024/02/05 00:17:29;;;;;;;7.60;3.70;;;;;;;2.80;100.00;99471.65;109649;1251;74151;-83
2024/02/05 00:19:58;;;;;;;5.90;2.90;;;;;;;2.79;100.00;99465.64;109672;1251;63788;-83
2024/02/05 00:22:25;;;;;;;5.90;3.60;;;;;;;2.76;100.00;99465.44;109666;1251;72681;-81
2024/02/05 00:24:52;;;;;;;4.50;3.00;;;;;;;2.73;100.00;99461.77;109561;1251;59678;-83
2024/02/05 00:27:19;;;;;;;5.30;2.70;;;;;;;2.70;100.00;99459.69;109653;1251;60059;-82
2024/02/05 00:29:46;;;;;;;6.30;3.30;;;;;;;2.66;100.00;99460.71;109648;1251;72610;-82
2024/02/05 00:32:13;;;;;;;3.70;2.40;;;;;;;2.64;100.00;99459.61;109690;1251;62569;-83
2024/02/05 00:34:40;;;;;;;6.30;2.90;;;;;;;2.61;100.00;99457.33;109701;1251;72648;-82
2024/02/05 00:37:08;;;;;;;6.70;2.80;;;;;;;2.58;100.00;99455.42;109629;1256;60074;-81
2024/02/05 00:39:34;;;;;;;5.30;3.10;;;;;;;2.56;100.00;99455.36;109645;1251;58924;-81
2024/02/05 00:42:02;;;;;;;4.60;3.60;;;;;;;2.54;100.00;99449.07;109658;1251;71680;-81
2024/02/05 00:44:29;;;;;;;4.70;2.90;;;;;;;2.50;100.00;99443.02;109708;1251;63776;-82
2024/02/05 00:46:56;;;;;;;5.00;3.20;;;;;;;2.47;100.00;99437.30;109648;1251;72689;-81
2024/02/05 00:49:23;;;;;;;3.30;2.40;;;;;;;2.44;100.00;99434.13;109643;1253;61227;-80
2024/02/05 00:51:50;;;;;;;4.90;2.70;;;;;;;2.41;100.00;99432.39;109671;1251;58768;-82
2024/02/05 00:54:17;;;;;;;6.10;2.60;;;;;;;2.39;100.00;99430.24;109785;1251;73833;-81
2024/02/05 00:56:44;;;;;;;5.40;2.60;;;;;;;2.38;100.00;99432.02;109738;1251;63742;-82
2024/02/05 00:59:12;;;;;;;7.40;3.10;;;;;;;2.37;100.00;99423.44;109606;1251;72456;-81
2024/02/05 01:01:43;;;;;;;7.00;3.20;;;;;;;2.36;100.00;99419.17;109700;1251;61232;-81
2024/02/05 01:04:11;;;;;;;6.00;3.30;;;;;;;2.34;100.00;99412.55;109743;1251;58070;-81
2024/02/05 01:10:40;;;;;;;5.20;2.50;;;;;;;2.30;100.00;99407.50;102850;1291;600310;-81
2024/02/05 01:13:08;;;;;;;8.20;3.00;;;;;;;2.26;100.00;99396.84;105128;1267;59599;-83
2024/02/05 01:15:35;;;;;;;4.50;2.40;;;;;;;2.24;100.00;99395.02;105852;1254;59338;-81
2024/02/05 01:18:04;;;;;;;9.70;2.60;;;;;;;2.21;100.00;99391.39;105732;1259;70531;-82
2024/02/05 01:20:31;;;;;;;5.20;2.70;;;;;;;2.19;100.00;99385.61;105567;1254;63395;-81
2024/02/05 01:22:59;;;;;;;8.30;2.90;;;;;;;2.17;100.00;99388.28;105731;1259;73189;-81
2024/02/05 01:25:26;;;;;;;2.90;2.20;;;;;;;2.15;100.00;99381.33;105900;1253;194258;-81
2024/02/05 01:27:54;;;;;;;4.90;2.30;;;;;;;2.12;100.00;99372.83;106006;1259;60389;-83
2024/02/05 01:30:22;;;;;;;4.80;2.30;;;;;;;2.10;100.00;99369.31;106093;1252;72258;-82
2024/02/05 01:32:50;;;;;;;8.30;2.90;;;;;;;2.07;100.00;99369.06;106018;1256;62339;-81
2024/02/05 01:35:19;;;;;;;4.70;3.10;;;;;;;2.06;100.00;99366.04;106110;1253;71360;-81
2024/02/05 01:37:46;;;;;;;5.30;2.60;;;;;;;2.05;100.00;99369.66;105908;1253;59949;-83
2024/02/05 01:40:14;;;;;;;7.20;2.30;;;;;;;2.04;100.00;99367.30;106145;1256;59583;-83
2024/02/05 01:42:43;;;;;;;5.20;2.80;;;;;;;2.01;100.00;99369.18;106085;1253;73252;-84
2024/02/05 01:57:10;;;;;;;9.70;3.00;;;;;;;2.02;100.00;99355.35;102755;1292;601047;-81
2024/02/05 01:59:38;;;;;;;4.70;2.80;;;;;;;2.01;100.00;99351.27;104967;1267;62207;-84
2024/02/05 02:02:06;;;;;;;3.50;3.00;;;;;;;2.02;100.00;99349.48;105031;1270;59371;-81
2024/02/05 02:04:35;;;;;;;8.40;3.10;;;;;;;2.04;100.00;99345.23;105428;1267;72054;-80
2024/02/05 02:07:06;;;;;;;10.10;2.70;;;;;;;2.07;100.00;99343.05;106054;1267;62678;-83
2024/02/05 02:09:34;;;;;;;10.60;3.90;;;;;;;2.12;100.00;99338.52;105524;1263;72492;-82
2024/02/05 02:12:02;;;;;;;5.80;2.60;;;;;;;2.17;100.00;99333.47;105725;1254;61171;-82
2024/02/05 02:14:30;;;;;;;6.00;3.00;;;;;;;2.22;100.00;99334.42;105812;1257;59342;-82
2024/02/05 02:16:57;;;;;;;7.10;3.70;;;;;;;2.28;100.00;99325.16;105812;1259;72201;-83
2024/02/05 02:19:42;;;;;;;7.20;2.70;;;;;;;2.35;100.00;99321.09;106093;1251;63650;-82
2024/02/05 02:22:13;;;;;;;7.70;2.30;;;;;;;2.42;100.00;99316.45;105844;1255;71421;-82
2024/02/05 02:24:41;;;;;;;5.40;2.60;;;;;;;2.47;100.00;99311.36;105806;1256;59698;-84
2024/02/05 02:27:08;;;;;;;6.60;3.60;;;;;;;2.53;100.00;99306.92;105931;1251;60081;-82
2024/02/05 02:29:36;;;;;;;8.10;2.30;;;;;;;2.60;100.00;99305.55;106020;1256;73476;-81
2024/02/05 02:32:20;;;;;;;3.80;2.30;;;;;;;2.67;100.00;99305.04;105969;1251;62411;-81
2024/02/05 02:34:48;;;;;;;7.00;2.50;;;;;;;2.73;100.00;99309.95;106195;1254;71504;-81
2024/02/05 02:37:16;;;;;;;4.20;2.40;;;;;;;2.77;100.00;99311.83;106245;1257;60847;-82
2024/02/05 02:39:52;;;;;;;7.30;2.80;;;;;;;2.80;100.00;99312.02;106753;1264;59576;-81
2024/02/05 02:42:20;;;;;;;4.70;2.30;;;;;;;2.81;100.00;99307.64;106317;1251;73087;-82
2024/02/05 02:44:47;;;;;;;4.60;2.00;;;;;;;2.83;100.00;99300.80;106100;1255;61650;-83
2024/02/05 02:47:15;;;;;;;4.80;2.90;;;;;;;2.85;100.00;99302.26;107000;1254;70436;-84
2024/02/05 02:49:43;;;;;;;6.80;3.10;;;;;;;2.85;100.00;99290.37;106192;1251;59848;-83
2024/02/05 02:52:11;;;;;;;10.40;3.00;;;;;;;2.88;100.00;99295.59;106305;1251;59604;-82
2024/02/05 02:54:39;;;;;;;6.30;2.80;;;;;;;2.86;100.00;99285.66;106132;1256;71893;-81
2024/02/05 02:57:06;;;;;;;4.80;3.20;;;;;;;2.85;100.00;99280.35;106693;1251;64619;-83
2024/02/05 02:59:34;;;;;;;10.20;2.90;;;;;;;2.85;100.00;99272.95;107701;1256;74015;-84
2024/02/05 03:02:03;;;;;;;9.30;3.10;;;;;;;2.83;100.00;99266.80;106169;1254;59746;-86
2024/02/05 03:04:31;;;;;;;12.70;6.20;;;;;;;2.81;100.00;99263.13;106180;1251;59676;-85
2024/02/05 03:06:59;;;;;;;16.90;7.40;;;;;;;2.79;100.00;99257.88;106319;1251;71768;-83
2024/02/05 03:09:27;;;;;;;5.10;3.10;;;;;;;2.78;100.00;99247.04;106791;1256;65754;-84
2024/02/05 03:11:54;;;;;;;6.40;3.10;;;;;;;2.76;100.00;99242.16;106464;1251;73157;-86
2024/02/05 03:14:25;;;;;;;6.10;3.00;;;;;;;2.74;100.00;99241.58;106401;1258;63638;-83
2024/02/05 03:16:55;;;;;;;10.10;3.40;;;;;;;2.71;100.00;99234.98;107596;1251;59749;-80
2024/02/05 03:19:22;;;;;;;9.40;4.00;;;;;;;2.71;100.00;99230.65;106058;1257;73123;-84
2024/02/05 03:21:52;;;;;;;7.60;4.50;;;;;;;2.71;100.00;99226.02;106010;1251;62254;-82
2024/02/05 03:24:19;;;;;;;10.10;5.60;;;;;;;2.69;100.00;99219.20;106161;1251;71941;-83
2024/02/05 03:26:48;;;;;;;13.60;5.80;;;;;;;2.66;100.00;99221.76;106141;1257;59776;-83
2024/02/05 03:29:16;;;;;;;15.60;6.30;;;;;;;2.63;100.00;99218.46;106041;1251;60687;-81
2024/02/05 03:31:44;;;;;;;11.20;6.70;;;;;;;2.61;100.00;99216.15;105983;1251;72168;-83
2024/02/05 03:34:12;;;;;;;9.40;6.50;;;;;;;2.61;100.00;99215.65;105879;1253;62663;-83
2024/02/05 03:36:40;;;;;;;13.60;7.30;;;;;;;2.59;100.00;99204.67;106100;1251;71372;-83
2024/02/05 03:39:09;;;;;;;10.90;6.30;;;;;;;2.62;100.00;99200.59;105963;1254;59830;-81
2024/02/05 03:41:37;;;;;;;11.40;6.30;;;;;;;2.61;100.00;99192.16;106041;1257;59552;-84
2024/02/05 03:46:16;;;;;;;10.70;6.40;;;;;;;2.61;100.00;99184.05;103478;1286;600697;-83
2024/02/05 03:48:55;;;;;;;9.20;6.40;;;;;;;2.57;100.00;99180.45;105146;1269;59642;-81
2024/02/05 03:51:23;;;;;;;12.60;6.60;;;;;;;2.57;100.00;99178.94;105168;1264;59366;-82
2024/02/05 03:53:51;;;;;;;17.70;8.70;;;;;;;2.56;100.00;99178.80;105398;1258;71978;-80
2024/02/05 03:56:18;;;;;;;19.20;9.90;;;;;;;2.54;100.00;99172.15;105558;1257;62565;-85
2024/02/05 03:58:48;;;;;;;11.70;7.40;;;;;;;2.53;100.00;99163.92;105491;1258;218698;-79
2024/02/05 04:01:15;;;;;;;12.30;7.60;;;;;;;2.52;100.00;99157.63;105727;1259;60919;-81
2024/02/05 04:03:43;;;;;;;11.00;7.10;;;;;;;2.50;100.00;99151.84;105712;1257;60061;-82
2024/02/05 04:06:12;;;;;;;12.50;6.80;;;;;;;2.47;100.00;99153.91;105779;1254;70971;-81
2024/02/05 04:08:40;;;;;;;9.30;4.40;;;;;;;2.45;100.00;99158.27;105768;1260;62568;-83
2024/02/05 04:11:07;;;;;;;11.10;7.40;;;;;;;2.45;100.00;99152.24;105759;1254;71448;-84
2024/02/05 04:13:35;;;;;;;9.60;4.50;;;;;;;2.46;100.00;99154.09;105761;1260;61207;-83
2024/02/05 04:16:03;;;;;;;9.40;4.90;;;;;;;2.48;100.00;99150.74;105665;1254;59667;-83
2024/02/05 04:18:30;;;;;;;7.80;4.20;;;;;;;2.50;100.00;99148.05;106045;1249;71916;-86
2024/02/05 04:21:03;;;;;;;8.40;4.40;;;;;;;2.52;100.00;99148.30;106082;1254;62448;-83
2024/02/05 04:23:31;;;;;;;8.00;4.50;;;;;;;2.53;100.00;99149.61;106039;1255;72770;-82
2024/02/05 04:26:00;;;;;;;9.70;4.40;;;;;;;2.56;100.00;99155.67;106236;1255;59689;-81
2024/02/05 04:28:31;;;;;;;9.60;5.90;;;;;;;2.59;100.00;99147.78;107130;1251;59663;-84
2024/02/05 04:30:59;;;;;;;10.60;5.00;;;;;;;2.61;100.00;99137.64;105972;1256;72851;-85
2024/02/05 04:33:26;;;;;;;10.30;5.40;;;;;;;2.64;100.00;99141.66;106347;1257;65859;-86
2024/02/05 04:35:54;;;;;;;7.20;4.50;;;;;;;2.67;100.00;99130.80;106106;1251;72810;-84
2024/02/05 04:38:21;;;;;;;10.00;4.80;;;;;;;2.69;100.00;99129.80;106915;1254;60104;-84
2024/02/05 04:40:49;;;;;;;9.90;4.90;;;;;;;2.72;100.00;99127.77;106946;1250;60136;-82
2024/02/05 04:43:16;;;;;;;8.30;4.90;;;;;;;2.75;100.00;99127.77;106269;1251;75013;-84
2024/02/05 04:45:44;;;;;;;7.60;4.30;;;;;;;2.78;100.00;99121.60;106092;1255;63181;-81
2024/02/05 04:48:19;;;;;;;6.10;5.40;;;;;;;2.80;100.00;99117.02;106115;1255;73339;-85
2024/02/05 04:50:50;;;;;;;12.00;5.50;;;;;;;2.80;100.00;99109.25;106035;1251;59713;-84
2024/02/05 04:53:19;;;;;;;7.80;4.90;;;;;;;2.79;100.00;99102.74;106177;1253;59654;-84
2024/02/05 04:55:46;;;;;;;10.60;5.90;;;;;;;2.76;100.00;99102.36;106093;1254;71742;-84
2024/02/05 04:58:14;;;;;;;9.50;5.00;;;;;;;2.74;100.00;99101.45;106197;1251;63775;-84
2024/02/05 05:00:42;;;;;;;6.20;4.90;;;;;;;2.74;100.00;99101.97;106066;1251;71447;-80
2024/02/05 05:03:10;;;;;;;6.80;4.60;;;;;;;2.75;100.00;99095.54;105975;1251;60907;-85
2024/02/05 05:05:37;;;;;;;7.80;4.90;;;;;;;2.77;100.00;99089.55;105938;1252;60301;-82
2024/02/05 05:08:05;;;;;;;8.30;4.70;;;;;;;2.79;100.00;99082.02;106007;1251;71760;-83
2024/02/05 05:10:32;;;;;;;7.10;5.00;;;;;;;2.82;100.00;99081.66;106537;1251;63498;-83
2024/02/05 05:13:03;;;;;;;11.10;5.50;;;;;;;2.84;100.00;99074.16;106193;1257;72422;-84
2024/02/05 05:15:32;;;;;;;11.60;6.70;;;;;;;2.86;100.00;99076.30;105994;1251;60124;-84
2024/02/05 05:18:04;;;;;;;9.50;6.00;;;;;;;2.86;100.00;99073.70;106256;1253;60075;-83
2024/02/05 05:20:32;;;;;;;10.20;6.00;;;;;;;2.86;100.00;99072.69;106121;1251;71509;-82
2024/02/05 05:22:59;;;;;;;8.80;5.40;;;;;;;2.84;100.00;99064.35;106381;1251;63527;-84
2024/02/05 05:25:27;;;;;;;9.30;5.40;;;;;;;2.83;100.00;99059.91;105954;1253;72222;-84
2024/02/05 05:27:56;;;;;;;10.90;5.50;;;;;;;2.81;100.00;99062.08;106258;1251;60903;-81
2024/02/05 05:30:23;;;;;;;8.60;5.30;;;;;;;2.81;100.00;99055.01;105966;1259;60013;-82
2024/02/05 05:32:51;;;;;;;9.70;5.50;;;;;;;2.83;100.00;99057.14;106076;1257;71053;-83
2024/02/05 05:35:18;;;;;;;6.00;4.60;;;;;;;2.83;100.00;99045.42;105971;1257;63885;-83
2024/02/05 05:37:45;;;;;;;7.70;4.80;;;;;;;2.91;100.00;99056.56;106968;1254;72305;-79
2024/02/05 05:40:14;;;;;;;11.20;4.90;;;;;;;2.94;100.00;99061.73;106424;1254;61226;-82
2024/02/05 05:42:41;;;;;;;9.60;6.50;;;;;;;2.97;100.00;99057.05;105985;1254;59657;-83
2024/02/05 05:45:10;;;;;;;14.10;9.10;;;;;;;3.01;100.00;99058.26;106021;1253;71983;-83
2024/02/05 05:47:39;;;;;;;17.90;10.40;;;;;;;3.03;100.00;99061.77;105910;1251;63675;-83
2024/02/05 05:50:07;;;;;;;11.70;8.50;;;;;;;3.05;100.00;99070.11;106090;1252;72002;-83
2024/02/05 05:52:36;;;;;;;12.30;8.70;;;;;;;3.07;100.00;99059.11;106047;1256;60110;-83
2024/02/05 05:55:03;;;;;;;10.30;8.20;;;;;;;3.08;100.00;99059.56;106121;1255;59727;-82
2024/02/05 05:57:31;;;;;;;10.90;8.10;;;;;;;3.09;100.00;99058.48;106261;1253;75222;-80
2024/02/05 05:59:59;;;;;;;9.40;7.40;;;;;;;3.09;100.00;99064.35;106150;1254;63784;-84
2024/02/05 06:02:27;;;;;;;13.80;7.50;;;;;;;3.09;100.00;99063.15;105917;1252;71633;-83
2024/02/05 06:04:54;;;;;;;10.60;6.40;;;;;;;3.10;100.00;99055.85;106069;1251;60138;-84
2024/02/05 06:07:22;;;;;;;10.40;6.60;;;;;;;3.12;100.00;99052.64;106303;1250;60510;-82
2024/02/05 06:09:50;;;;;;;9.50;4.90;;;;;;;3.13;100.00;99060.86;106305;1251;73803;-86
2024/02/05 06:12:17;;;;;;;11.60;6.80;;;;;;;3.15;100.00;99060.27;105992;1257;64534;-84
2024/02/05 06:14:45;;;;;;;8.60;5.30;;;;;;;3.17;100.00;99060.66;106029;1251;72998;-82
2024/02/05 06:17:13;;;;;;;6.40;5.40;;;;;;;3.23;100.00;99053.09;106048;1252;59694;-84
2024/02/05 06:19:41;;;;;;;6.20;5.00;;;;;;;3.27;100.00;99051.09;105939;1256;59624;-85
2024/02/05 06:22:08;;;;;;;6.80;4.10;;;;;;;3.31;100.00;99061.42;106005;1256;73054;-82
2024/02/05 06:24:36;;;;;;;10.10;5.00;;;;;;;3.35;100.00;99062.94;106063;1250;62619;-83
2024/02/05 06:27:05;;;;;;;9.20;5.10;;;;;;;3.37;100.00;99057.13;106070;1252;71814;-83
2024/02/05 06:29:34;;;;;;;5.40;4.50;;;;;;;3.40;100.00;99053.00;106117;1251;61460;-82
2024/02/05 06:32:02;;;;;;;5.70;4.10;;;;;;;3.44;100.00;99056.05;106057;1256;59576;-82
2024/02/05 06:34:30;;;;;;;9.90;5.20;;;;;;;3.50;100.00;99049.16;107342;1251;73079;-83
2024/02/05 06:37:05;;;;;;;9.10;5.00;;;;;;;3.59;100.00;99049.88;109201;1251;62799;-83
2024/02/05 06:39:44;;;;;;;9.70;5.10;;;;;;;3.68;100.00;99046.06;109260;1251;71181;-82
2024/02/05 06:42:30;;;;;;;8.10;5.70;;;;;;;3.75;100.00;99039.29;109371;1250;59767;-84
2024/02/05 06:44:59;;;;;;;7.00;4.80;;;;;;;3.81;100.00;99025.81;109345;1251;59757;-84
2024/02/05 06:47:52;;;;;;;6.90;5.40;;;;;;;3.86;100.00;99024.80;109194;1254;71677;-83
2024/02/05 06:50:23;;;;;;;10.60;6.40;;;;;;;3.90;100.00;99026.67;108784;1254;62765;-81
2024/02/05 07:04:53;;;;;;;13.00;4.40;;;;;;;4.06;100.00;99008.41;104475;1293;599933;-83
2024/02/05 07:07:23;;;;;;;15.10;8.90;;;;;;;4.09;100.00;99003.91;108308;1267;60510;-83
2024/02/05 07:19:06;;;;;;;5.20;3.40;;;;;;;4.61;100.00;98978.79;106196;1285;599146;-81
2024/02/05 07:21:40;;;;;;;4.60;4.00;;;;;;;4.72;100.00;98972.20;108148;1266;60099;-82
2024/02/05 07:24:09;;;;;;;6.10;3.90;;;;;;;4.81;100.00;98962.36;108499;1266;61524;-83
2024/02/05 07:26:36;;;;;;;7.90;3.60;;;;;;;4.86;100.00;98975.52;108192;1266;71096;-83
2024/02/05 07:29:05;;;;;;;6.00;3.70;;;;;;;4.89;100.00;98976.52;108472;1258;65328;-81
2024/02/05 07:31:34;;;;;;;5.30;3.50;;;;;;;4.93;100.00;98980.61;108413;1256;200510;-83
2024/02/05 07:34:03;;;;;;;9.90;3.80;;;;;;;5.02;100.00;98981.11;109060;1254;60870;-84
2024/02/05 07:36:31;;;;;;;3.50;2.50;;;;;;;5.13;100.00;98982.84;109069;1253;60942;-81
2024/02/05 07:39:00;;;;;;;7.00;3.60;;;;;;;5.27;100.00;98981.73;109381;1258;74210;-83
2024/02/05 07:43:31;;;;;;;9.00;3.60;;;;;;;5.49;100.00;98986.56;105888;1286;612856;-83
2024/02/05 07:46:31;;;;;;;6.80;4.50;;;;;;;5.64;100.00;98977.09;106920;1267;59426;-83
2024/02/05 07:49:34;;;;;;;6.20;3.00;;;;;;;5.89;100.00;98968.47;106843;1265;59260;-80
2024/02/05 07:52:14;;;;;;;6.40;3.30;;;;;;;6.09;100.00;98962.85;105867;1266;70199;-83
2024/02/05 07:54:42;;;;;;;4.90;3.60;;;;;;;6.27;100.00;98962.32;105802;1266;63720;-81
2024/02/05 07:57:33;;;;;;;6.40;4.00;;;;;;;6.40;100.00;98959.32;106466;1264;267341;-82
2024/02/05 08:00:01;;;;;;;5.50;2.90;;;;;;;6.48;100.00;98958.39;105735;1257;59676;-83
2024/02/05 08:02:42;;;;;;;4.90;3.10;;;;;;;6.55;100.00;98955.48;105954;1257;60409;-83
2024/02/05 08:05:09;;;;;;;4.00;2.70;;;;;;;6.58;100.00;98956.69;105925;1256;71258;-83
2024/02/05 08:07:36;;;;;;;7.80;2.90;;;;;;;6.59;100.00;98958.65;106273;1256;63207;-82
2024/02/05 08:10:04;;;;;;;6.30;3.30;;;;;;;6.61;100.00;98956.11;106091;1257;71859;-84
2024/02/05 08:12:32;;;;;;;9.60;3.20;;;;;;;6.60;100.00;98953.41;106450;1257;62180;-84
2024/02/05 08:15:00;;;;;;;4.50;2.60;;;;;;;6.58;100.00;98949.17;106252;1257;60206;-82
2024/02/05 08:17:28;;;;;;;8.00;3.00;;;;;;;6.56;100.00;98950.36;106397;1257;71447;-82
2024/02/05 08:19:55;;;;;;;9.20;3.40;;;;;;;6.60;100.00;98945.71;106603;1257;63913;-82
2024/02/05 08:22:22;;;;;;;3.20;2.80;;;;;;;6.71;100.00;98941.53;106268;1260;71834;-84
2024/02/05 08:24:50;;;;;;;4.20;3.10;;;;;;;6.87;100.00;98946.81;106747;1256;62055;-79
2024/02/05 08:27:17;;;;;;;4.10;2.40;;;;;;;7.00;100.00;98946.02;106943;1257;59720;-82
2024/02/05 08:29:45;;;;;;;3.80;2.60;;;;;;;7.08;100.00;98937.14;107118;1258;72948;-79
2024/02/05 08:32:12;;;;;;;5.80;3.00;;;;;;;7.12;100.00;98935.08;107868;1256;62711;-81
2024/02/05 08:34:40;;;;;;;3.60;2.50;;;;;;;7.17;100.00;98921.52;108028;1257;72687;-83
2024/02/05 08:37:09;;;;;;;3.40;2.80;;;;;;;7.24;100.00;98917.55;107769;1257;59984;-83
2024/02/05 08:39:38;;;;;;;4.40;2.90;;;;;;;7.34;100.00;98911.58;106758;1256;60342;-83
2024/02/05 08:42:05;;;;;;;9.00;3.70;;;;;;;7.47;100.00;98906.64;106943;1256;71598;-83
2024/02/05 08:44:51;;;;;;;5.00;3.40;;;;;;;7.63;100.00;98903.67;106654;1256;63295;-83
2024/02/05 08:47:18;;;;;;;6.70;3.40;;;;;;;7.79;100.00;98904.52;106587;1260;71684;-82
2024/02/05 08:49:45;;;;;;;4.10;3.20;;;;;;;7.94;100.00;98905.35;106343;1257;60129;-83
2024/02/05 08:52:16;;;;;;;6.50;3.40;;;;;;;8.05;100.00;98903.23;106319;1253;59685;-81
2024/02/05 08:54:43;;;;;;;5.00;3.40;;;;;;;8.13;100.00;98900.05;106147;1254;73177;-83
2024/02/05 08:57:10;;;;;;;5.40;3.70;;;;;;;8.23;100.00;98898.91;106265;1256;65067;-84
2024/02/05 08:59:37;;;;;;;6.90;3.60;;;;;;;8.31;100.00;98894.96;106262;1254;72817;-82
2024/02/05 09:02:05;;;;;;;5.60;4.40;;;;;;;8.35;100.00;98893.77;106397;1256;61610;-82
2024/02/05 09:04:33;;;;;;;10.70;5.50;;;;;;;8.43;100.00;98893.89;107275;1253;59520;-81
2024/02/05 09:07:00;;;;;;;9.60;4.70;;;;;;;8.48;100.00;98894.73;107376;1256;73892;-83
2024/02/05 09:09:27;;;;;;;6.80;4.40;;;;;;;8.54;100.00;98885.38;106471;1255;64196;-81
2024/02/05 09:11:54;;;;;;;6.60;3.60;;;;;;;8.60;100.00;98884.36;106065;1254;70741;-80
2024/02/05 09:14:34;;;;;;;6.50;4.20;;;;;;;8.67;100.00;98889.75;105905;1253;62158;-81
2024/02/05 09:17:02;;;;;;;5.90;3.20;;;;;;;8.68;100.00;98887.00;106491;1255;59637;-81
2024/02/05 09:19:32;;;;;;;5.40;2.60;;;;;;;8.73;100.00;98883.86;106675;1252;74764;-83
2024/02/05 09:21:59;;;;;;;7.70;3.10;;;;;;;8.77;100.00;98882.34;106081;1254;63686;-83
2024/02/05 09:24:26;;;;;;;9.00;4.20;;;;;;;8.85;100.00;98877.52;106639;1253;70884;-82
2024/02/05 09:26:54;;;;;;;6.70;3.50;;;;;;;8.95;100.00;98879.85;106829;1254;61247;-84
2024/02/05 09:29:21;;;;;;;7.80;3.30;;;;;;;8.98;100.00;98873.70;106023;1256;59976;-80
2024/02/05 09:31:49;;;;;;;7.80;3.80;;;;;;;8.98;100.00;98875.56;106055;1256;73358;-84
2024/02/05 09:34:17;;;;;;;6.50;3.50;;;;;;;9.00;100.00;98863.06;106140;1254;63789;-82
2024/02/05 09:36:44;;;;;;;8.20;3.30;;;;;;;9.03;100.00;98858.13;106040;1259;71704;-82
2024/02/05 09:39:12;;;;;;;4.20;3.20;;;;;;;9.09;100.00;98856.59;107912;1254;62827;-84
2024/02/05 09:41:40;;;;;;;5.80;2.70;;;;;;;9.22;100.00;98854.42;107613;1252;59566;-81
2024/02/05 09:44:08;;;;;;;8.90;3.50;;;;;;;9.36;100.00;98852.36;107450;1252;72671;-82
2024/02/05 09:46:35;;;;;;;9.30;3.90;;;;;;;9.46;100.00;98849.50;106659;1254;64077;-84
2024/02/05 09:49:03;;;;;;;5.30;3.10;;;;;;;9.46;100.00;98849.77;105983;1257;71974;-85
2024/02/05 09:51:36;;;;;;;4.70;2.70;;;;;;;9.38;100.00;98845.92;106133;1255;62815;-83
2024/02/05 09:54:04;;;;;;;6.60;3.10;;;;;;;9.26;100.00;98839.80;106035;1256;60368;-84
2024/02/05 09:56:47;;;;;;;4.60;3.40;;;;;;;9.14;100.00;98827.20;106730;1254;72997;-82
2024/02/05 09:59:14;;;;;;;4.40;3.20;;;;;;;9.07;100.00;98817.84;107682;1258;63697;-85
2024/02/05 10:01:41;;;;;;;5.50;3.90;;;;;;;8.96;100.00;98815.28;106209;1259;71984;-82
2024/02/05 10:04:09;;;;;;;6.30;3.00;;;;;;;8.86;100.00;98809.57;105884;1253;62999;-84
2024/02/05 10:06:38;;;;;;;6.10;3.30;;;;;;;8.83;100.00;98810.06;106481;1254;59642;-83
2024/02/05 10:09:06;;;;;;;6.50;3.50;;;;;;;8.83;100.00;98798.39;107312;1254;73293;-81
2024/02/05 10:11:41;;;;;;;3.80;2.90;;;;;;;8.89;100.00;98791.95;106903;1253;65565;-84
2024/02/05 10:14:08;;;;;;;3.90;2.40;;;;;;;9.06;100.00;98788.27;106672;1255;71759;-83
2024/02/05 10:16:39;;;;;;;3.40;1.90;;;;;;;9.21;100.00;98786.66;107312;1256;60838;-82
2024/02/05 10:19:06;;;;;;;6.80;2.30;;;;;;;9.36;100.00;98781.27;106458;1253;59442;-83
2024/02/05 10:21:33;;;;;;;3.70;1.70;;;;;;;9.47;100.00;98775.20;106281;1253;73315;-84
2024/02/05 10:24:00;;;;;;;2.50;2.00;;;;;;;9.65;100.00;98777.39;106062;1256;62225;-82
2024/02/05 10:26:27;;;;;;;3.90;2.10;;;;;;;9.84;100.00;98768.40;105952;1252;72877;-84
2024/02/05 10:29:04;;;;;;;4.20;1.90;;;;;;;9.95;100.00;98759.57;106195;1254;59755;-84
2024/02/05 10:31:32;;;;;;;3.60;1.40;;;;;;;9.91;100.00;98749.64;106120;1251;60220;-83
2024/02/05 10:33:59;;;;;;;2.90;1.60;;;;;;;9.77;100.00;98748.83;106247;1255;73110;-82
2024/02/05 10:36:26;;;;;;;1.90;1.50;;;;;;;9.67;100.00;98744.42;106065;1256;64139;-83
2024/02/05 10:38:53;;;;;;;2.20;1.20;;;;;;;9.58;100.00;98740.98;106147;1251;71739;-81
2024/02/05 10:41:21;;;;;;;2.70;1.20;;;;;;;9.47;100.00;98738.63;106144;1256;61600;-84
2024/02/05 10:43:49;;;;;;;3.00;1.50;;;;;;;9.33;100.00;98737.55;105903;1256;59631;-82
2024/02/05 10:46:16;;;;;;;4.10;1.50;;;;;;;9.26;100.00;98731.34;106254;1253;71978;-83
2024/02/05 10:48:45;;;;;;;2.40;1.70;;;;;;;9.23;100.00;98729.52;106826;1254;61839;-86
2024/02/05 10:51:13;;;;;;;4.20;1.50;;;;;;;9.21;100.00;98730.77;106351;1254;72609;-81
2024/02/05 10:53:42;;;;;;;3.50;1.60;;;;;;;9.15;100.00;98726.17;106036;1256;60300;-83
2024/02/05 10:56:09;;;;;;;2.10;1.30;;;;;;;9.09;100.00;98725.83;106188;1253;60442;-84
2024/02/05 10:58:36;;;;;;;4.00;1.80;;;;;;;8.99;100.00;98719.38;106043;1252;74984;-84
2024/02/05 11:01:03;;;;;;;2.50;1.70;;;;;;;8.85;100.00;98708.64;106113;1252;63663;-85
2024/02/05 11:03:30;;;;;;;2.70;1.40;;;;;;;8.70;100.00;98698.17;105948;1254;71581;-80
2024/02/05 11:05:58;;;;;;;2.90;1.60;;;;;;;8.59;100.00;98701.37;106052;1256;59743;-83
2024/02/05 11:08:26;;;;;;;5.10;2.40;;;;;;;8.51;100.00;98697.19;106172;1251;61297;-82
2024/02/05 11:10:55;;;;;;;4.30;2.40;;;;;;;8.44;100.00;98700.66;106265;1253;70974;-82
2024/02/05 11:13:30;;;;;;;7.20;4.40;;;;;;;8.39;100.00;98692.18;106254;1257;64030;-82
2024/02/05 11:15:57;;;;;;;5.30;1.70;;;;;;;8.36;100.00;98687.74;106216;1251;71230;-83
2024/02/05 11:18:34;;;;;;;3.20;1.80;;;;;;;8.34;100.00;98693.01;106161;1251;61754;-83
2024/02/05 11:21:03;;;;;;;3.70;1.80;;;;;;;8.30;100.00;98692.21;106199;1256;61300;-84
2024/02/05 11:23:32;;;;;;;4.40;2.50;;;;;;;8.26;100.00;98680.01;106304;1256;74251;-83
2024/02/05 11:25:59;;;;;;;4.40;1.90;;;;;;;8.23;100.00;98677.54;107881;1253;63762;-82
2024/02/05 11:28:29;;;;;;;2.70;1.90;;;;;;;8.19;100.00;98672.58;106167;1251;71498;-80
2024/02/05 11:31:02;;;;;;;5.50;3.10;;;;;;;8.13;100.00;98661.59;106112;1251;61328;-83
2024/02/05 11:33:30;;;;;;;4.10;2.30;;;;;;;8.05;100.00;98653.48;106074;1251;59561;-83
2024/02/05 11:35:57;;;;;;;4.30;2.10;;;;;;;8.04;100.00;98643.71;106095;1255;72300;-83
2024/02/05 11:38:24;;;;;;;4.00;2.50;;;;;;;8.02;100.00;98637.23;105883;1251;63217;-84
2024/02/05 11:40:52;;;;;;;6.70;2.30;;;;;;;8.02;100.00;98630.77;106085;1251;71011;-82
2024/02/05 11:43:24;;;;;;;6.60;3.30;;;;;;;8.04;100.00;98622.80;106033;1254;60340;-83
2024/02/05 11:45:52;;;;;;;2.40;2.10;;;;;;;8.05;100.00;98625.52;106155;1255;59669;-83
2024/02/05 11:48:22;;;;;;;5.60;3.00;;;;;;;8.03;100.00;98618.73;106053;1255;73058;-82
2024/02/05 11:50:50;;;;;;;3.60;2.90;;;;;;;7.99;100.00;98612.08;106053;1251;64946;-83
2024/02/05 11:53:17;;;;;;;3.80;2.60;;;;;;;7.95;100.00;98610.36;106122;1255;73430;-81
2024/02/05 11:55:44;;;;;;;3.50;2.40;;;;;;;7.84;100.00;98607.54;106091;1251;60894;-83
2024/02/05 11:58:12;;;;;;;2.90;2.50;;;;;;;7.77;100.00;98608.13;106900;1251;60475;-84
2024/02/05 12:00:39;;;;;;;3.00;2.20;;;;;;;7.73;100.00;98598.75;106480;1250;74500;-84
2024/02/05 12:03:07;;;;;;;3.10;1.80;;;;;;;7.66;100.00;98594.91;105983;1256;63624;-84
2024/02/05 12:05:34;;;;;;;5.30;1.70;;;;;;;7.60;100.00;98589.16;106149;1253;72220;-84
2024/02/05 12:08:01;;;;;;;5.30;3.10;;;;;;;7.52;100.00;98584.55;106482;1251;61167;-84
2024/02/05 12:10:29;;;;;;;3.40;1.90;;;;;;;7.44;100.00;98583.10;106052;1251;60408;-85
2024/02/05 12:12:56;;;;;;;2.90;2.00;;;;;;;7.39;100.00;98575.17;105957;1251;74116;-85